Murrurundi, New South Wales

12:46 PM AEDT on February 11, 2016 (GMT +1100)
Tamworth | | Change Station
CLOSE
Current Station
Airport
Location: Tamworth Airport,
Elevation: 1345 ft
Nearby Weather Stations

Elev 1345 ft 31.08 °S, 150.85 °E | Updated 16 minutes ago

Clear
Clear
86 °F
Feels Like 86 °F
N
5
Wind Variable Wind from NW

Today
High -- | Low -- °F
--% Chance of Precip.
Yesterday
High -- | Low -- °F
Precip. -- in
Pressure 29.92 in
Visibility 6.2 miles
Clouds
Dew Point 50 °F
Humidity 29%
Rainfall 0.00 in
Snow Depth Not available.
6:30 AM 7:50 PM
Waxing Crescent, 8% visible
METAR YSTW 110130Z AUTO 31004KT 9999 // NCD 30/10 Q1013
Pressure 29.92 in
Visibility 6.2 miles
Clouds
Dew Point 50 °F
Humidity 29%
Rainfall 0.00 in
Snow Depth Not available.
6:30 AM 7:50 PM
Waxing Crescent, 8% visible
METAR YSTW 110130Z AUTO 31004KT 9999 // NCD 30/10 Q1013

10-Day Weather Forecast

No radar image for this location.
×

Almanac

Astronomy

Feb. 11, 2016 Rise Set
Actual Time
Civil Twilight
Nautical Twilight
Astronomical Twilight
Moon
Length of Visible Light
Length of Day
Tomorrow will be .
, % of the Moon is Illuminated

Today's Extremes

Country Highs Country Lows

Community

WunderPhotos

Upload Photos

1,891,970 photos uploaded!

WunderBlog® & News

Nearby

Air Quality

  Air Quality AQ Index Pollutant
Not available.

Snow Depth

Station Depth Elevation

Earthquake Activity

City Distance Mag. Time & Date
Minimum magnitude displayed is 2.5.

Coastal Water Temperatures

Place Temperature

Stations

Nearby Weather Stations

Station Location Temp. Windchill Dew Point Humidity Wind Precip. Elev Updated Type